sensor_id;sensor_type;location;lat;lon;timestamp;temperature;humidity
71039;SHT30;58692;43.212;27.908;2023-08-31T00:02:01;26.83;86.30
71039;SHT30;58692;43.212;27.908;2023-08-31T00:04:29;26.86;86.24
71039;SHT30;58692;43.212;27.908;2023-08-31T00:06:54;26.85;86.21
71039;SHT30;58692;43.212;27.908;2023-08-31T00:09:23;26.86;86.14
71039;SHT30;58692;43.212;27.908;2023-08-31T00:11:49;26.92;86.01
71039;SHT30;58692;43.212;27.908;2023-08-31T00:14:15;26.83;86.20
71039;SHT30;58692;43.212;27.908;2023-08-31T00:16:41;26.86;85.81
71039;SHT30;58692;43.212;27.908;2023-08-31T00:19:06;26.89;85.10
71039;SHT30;58692;43.212;27.908;2023-08-31T00:21:32;26.86;84.65
71039;SHT30;58692;43.212;27.908;2023-08-31T00:23:58;26.85;84.33
71039;SHT30;58692;43.212;27.908;2023-08-31T00:26:24;26.91;84.00
71039;SHT30;58692;43.212;27.908;2023-08-31T00:28:50;26.89;84.03
71039;SHT30;58692;43.212;27.908;2023-08-31T00:31:15;26.82;84.26
71039;SHT30;58692;43.212;27.908;2023-08-31T00:33:41;26.75;84.48
71039;SHT30;58692;43.212;27.908;2023-08-31T00:36:06;26.79;84.33
71039;SHT30;58692;43.212;27.908;2023-08-31T00:38:32;26.79;84.29
71039;SHT30;58692;43.212;27.908;2023-08-31T00:40:58;26.79;84.24
71039;SHT30;58692;43.212;27.908;2023-08-31T00:43:24;26.75;84.50
71039;SHT30;58692;43.212;27.908;2023-08-31T00:45:51;26.71;84.54
71039;SHT30;58692;43.212;27.908;2023-08-31T00:48:18;26.67;84.95
71039;SHT30;58692;43.212;27.908;2023-08-31T00:50:45;26.65;84.83
71039;SHT30;58692;43.212;27.908;2023-08-31T00:53:11;26.56;85.37
71039;SHT30;58692;43.212;27.908;2023-08-31T00:55:37;26.49;85.58
71039;SHT30;58692;43.212;27.908;2023-08-31T00:58:06;26.55;85.44
71039;SHT30;58692;43.212;27.908;2023-08-31T01:03:38;26.22;87.08
71039;SHT30;58692;43.212;27.908;2023-08-31T01:06:07;25.98;88.36
71039;SHT30;58692;43.212;27.908;2023-08-31T01:09:01;26.13;88.07
71039;SHT30;58692;43.212;27.908;2023-08-31T01:11:37;26.13;88.33
71039;SHT30;58692;43.212;27.908;2023-08-31T01:14:11;26.08;88.36
71039;SHT30;58692;43.212;27.908;2023-08-31T01:16:38;26.07;88.35
71039;SHT30;58692;43.212;27.908;2023-08-31T01:19:23;25.67;89.04
71039;SHT30;58692;43.212;27.908;2023-08-31T01:21:53;25.79;88.60
71039;SHT30;58692;43.212;27.908;2023-08-31T01:24:21;25.84;88.33
71039;SHT30;58692;43.212;27.908;2023-08-31T01:26:48;25.69;88.92
71039;SHT30;58692;43.212;27.908;2023-08-31T01:29:13;25.73;88.83
71039;SHT30;58692;43.212;27.908;2023-08-31T01:31:42;25.60;89.26
71039;SHT30;58692;43.212;27.908;2023-08-31T01:34:08;25.70;88.86
71039;SHT30;58692;43.212;27.908;2023-08-31T01:36:36;25.63;89.07
71039;SHT30;58692;43.212;27.908;2023-08-31T01:39:14;25.67;88.78
71039;SHT30;58692;43.212;27.908;2023-08-31T01:41:44;25.74;88.42
71039;SHT30;58692;43.212;27.908;2023-08-31T01:44:13;25.80;88.17
71039;SHT30;58692;43.212;27.908;2023-08-31T01:46:45;25.83;87.81
71039;SHT30;58692;43.212;27.908;2023-08-31T01:49:11;25.86;87.55
71039;SHT30;58692;43.212;27.908;2023-08-31T01:51:36;25.87;87.32
71039;SHT30;58692;43.212;27.908;2023-08-31T01:54:02;25.90;87.10
71039;SHT30;58692;43.212;27.908;2023-08-31T01:56:27;25.91;86.92
71039;SHT30;58692;43.212;27.908;2023-08-31T01:58:54;25.76;87.28
71039;SHT30;58692;43.212;27.908;2023-08-31T02:01:20;25.70;87.27
71039;SHT30;58692;43.212;27.908;2023-08-31T02:03:46;25.67;87.28
71039;SHT30;58692;43.212;27.908;2023-08-31T02:06:11;25.73;86.85
71039;SHT30;58692;43.212;27.908;2023-08-31T02:08:36;25.63;86.94
71039;SHT30;58692;43.212;27.908;2023-08-31T02:11:02;25.63;86.67
71039;SHT30;58692;43.212;27.908;2023-08-31T02:13:30;25.59;86.88
71039;SHT30;58692;43.212;27.908;2023-08-31T02:15:55;25.60;86.71
71039;SHT30;58692;43.212;27.908;2023-08-31T02:18:21;25.67;86.57
71039;SHT30;58692;43.212;27.908;2023-08-31T02:20:46;25.66;86.58
71039;SHT30;58692;43.212;27.908;2023-08-31T02:23:12;25.65;86.62
71039;SHT30;58692;43.212;27.908;2023-08-31T02:25:38;25.65;86.73
71039;SHT30;58692;43.212;27.908;2023-08-31T02:28:03;25.62;86.77
71039;SHT30;58692;43.212;27.908;2023-08-31T02:30:29;25.49;87.30
71039;SHT30;58692;43.212;27.908;2023-08-31T02:32:55;25.50;87.23
71039;SHT30;58692;43.212;27.908;2023-08-31T02:35:20;25.49;87.28
71039;SHT30;58692;43.212;27.908;2023-08-31T02:37:46;25.47;87.44
71039;SHT30;58692;43.212;27.908;2023-08-31T02:40:11;25.27;88.16
71039;SHT30;58692;43.212;27.908;2023-08-31T02:42:37;25.40;87.86
71039;SHT30;58692;43.212;27.908;2023-08-31T02:45:03;25.36;87.98
71039;SHT30;58692;43.212;27.908;2023-08-31T02:47:29;25.36;87.93
71039;SHT30;58692;43.212;27.908;2023-08-31T02:49:54;25.37;87.80
71039;SHT30;58692;43.212;27.908;2023-08-31T02:52:20;25.45;87.57
71039;SHT30;58692;43.212;27.908;2023-08-31T02:54:45;25.45;87.24
71039;SHT30;58692;43.212;27.908;2023-08-31T02:57:11;25.36;87.20
71039;SHT30;58692;43.212;27.908;2023-08-31T02:59:37;25.27;87.09
71039;SHT30;58692;43.212;27.908;2023-08-31T03:02:04;25.26;87.07
71039;SHT30;58692;43.212;27.908;2023-08-31T03:04:29;25.29;86.71
71039;SHT30;58692;43.212;27.908;2023-08-31T03:06:56;25.20;86.61
71039;SHT30;58692;43.212;27.908;2023-08-31T03:09:21;25.19;86.44
71039;SHT30;58692;43.212;27.908;2023-08-31T03:11:46;25.18;86.22
71039;SHT30;58692;43.212;27.908;2023-08-31T03:14:12;25.15;86.03
71039;SHT30;58692;43.212;27.908;2023-08-31T03:16:38;25.01;86.21
71039;SHT30;58692;43.212;27.908;2023-08-31T03:19:04;24.99;86.11
71039;SHT30;58692;43.212;27.908;2023-08-31T03:21:29;24.96;86.18
71039;SHT30;58692;43.212;27.908;2023-08-31T03:23:55;24.96;85.92
71039;SHT30;58692;43.212;27.908;2023-08-31T03:26:20;24.94;85.68
71039;SHT30;58692;43.212;27.908;2023-08-31T03:28:46;24.95;85.50
71039;SHT30;58692;43.212;27.908;2023-08-31T03:31:11;24.75;85.84
71039;SHT30;58692;43.212;27.908;2023-08-31T03:33:37;24.86;85.56
71039;SHT30;58692;43.212;27.908;2023-08-31T03:36:03;24.74;85.66
71039;SHT30;58692;43.212;27.908;2023-08-31T03:38:31;24.85;85.45
71039;SHT30;58692;43.212;27.908;2023-08-31T03:40:57;24.98;85.07
71039;SHT30;58692;43.212;27.908;2023-08-31T03:43:23;24.98;85.13
71039;SHT30;58692;43.212;27.908;2023-08-31T03:45:53;25.06;84.91
71039;SHT30;58692;43.212;27.908;2023-08-31T03:48:21;25.01;85.05
71039;SHT30;58692;43.212;27.908;2023-08-31T03:50:49;24.95;85.21
71039;SHT30;58692;43.212;27.908;2023-08-31T03:53:15;24.94;85.11
71039;SHT30;58692;43.212;27.908;2023-08-31T03:55:40;25.05;84.75
71039;SHT30;58692;43.212;27.908;2023-08-31T03:58:06;25.09;84.52
71039;SHT30;58692;43.212;27.908;2023-08-31T04:00:31;25.04;84.49
71039;SHT30;58692;43.212;27.908;2023-08-31T04:02:57;25.11;84.07
71039;SHT30;58692;43.212;27.908;2023-08-31T04:05:23;25.01;84.13
71039;SHT30;58692;43.212;27.908;2023-08-31T04:07:48;24.98;83.98
71039;SHT30;58692;43.212;27.908;2023-08-31T04:10:14;25.02;83.89
71039;SHT30;58692;43.212;27.908;2023-08-31T04:12:39;25.08;83.66
71039;SHT30;58692;43.212;27.908;2023-08-31T04:15:05;24.96;83.47
71039;SHT30;58692;43.212;27.908;2023-08-31T04:17:31;24.98;83.53
71039;SHT30;58692;43.212;27.908;2023-08-31T04:19:56;24.92;83.39
71039;SHT30;58692;43.212;27.908;2023-08-31T04:22:22;24.88;83.34
71039;SHT30;58692;43.212;27.908;2023-08-31T04:24:47;25.01;82.94
71039;SHT30;58692;43.212;27.908;2023-08-31T04:27:12;24.91;83.08
71039;SHT30;58692;43.212;27.908;2023-08-31T04:29:38;24.94;82.89
71039;SHT30;58692;43.212;27.908;2023-08-31T04:32:04;25.06;82.54
71039;SHT30;58692;43.212;27.908;2023-08-31T04:34:30;25.11;82.21
71039;SHT30;58692;43.212;27.908;2023-08-31T04:36:55;25.09;82.02
71039;SHT30;58692;43.212;27.908;2023-08-31T04:39:21;25.01;82.30
71039;SHT30;58692;43.212;27.908;2023-08-31T04:41:47;25.06;81.95
71039;SHT30;58692;43.212;27.908;2023-08-31T04:44:12;25.04;81.84
71039;SHT30;58692;43.212;27.908;2023-08-31T04:46:38;25.15;81.53
71039;SHT30;58692;43.212;27.908;2023-08-31T04:49:03;25.18;81.28
71039;SHT30;58692;43.212;27.908;2023-08-31T04:51:30;25.22;81.05
71039;SHT30;58692;43.212;27.908;2023-08-31T04:53:58;25.15;80.99
71039;SHT30;58692;43.212;27.908;2023-08-31T04:56:24;25.18;80.72
71039;SHT30;58692;43.212;27.908;2023-08-31T04:58:49;25.32;80.16
71039;SHT30;58692;43.212;27.908;2023-08-31T05:01:14;25.37;80.12
71039;SHT30;58692;43.212;27.908;2023-08-31T05:03:41;25.53;79.59
71039;SHT30;58692;43.212;27.908;2023-08-31T05:06:07;25.51;79.37
71039;SHT30;58692;43.212;27.908;2023-08-31T05:08:33;25.56;79.18
71039;SHT30;58692;43.212;27.908;2023-08-31T05:10:59;25.54;78.97
71039;SHT30;58692;43.212;27.908;2023-08-31T05:13:24;25.57;78.91
71039;SHT30;58692;43.212;27.908;2023-08-31T05:15:50;25.71;78.55
71039;SHT30;58692;43.212;27.908;2023-08-31T05:18:15;25.80;78.30
71039;SHT30;58692;43.212;27.908;2023-08-31T05:20:44;26.16;77.23
71039;SHT30;58692;43.212;27.908;2023-08-31T05:23:10;26.30;76.74
71039;SHT30;58692;43.212;27.908;2023-08-31T05:25:36;26.32;76.51
71039;SHT30;58692;43.212;27.908;2023-08-31T05:28:06;26.52;76.09
71039;SHT30;58692;43.212;27.908;2023-08-31T05:30:32;26.52;75.78
71039;SHT30;58692;43.212;27.908;2023-08-31T05:33:00;26.65;75.55
71039;SHT30;58692;43.212;27.908;2023-08-31T05:35:25;26.67;75.53
71039;SHT30;58692;43.212;27.908;2023-08-31T05:37:51;26.81;75.25
71039;SHT30;58692;43.212;27.908;2023-08-31T05:40:16;26.63;75.50
71039;SHT30;58692;43.212;27.908;2023-08-31T05:42:43;26.76;75.27
71039;SHT30;58692;43.212;27.908;2023-08-31T05:45:09;26.93;74.87
71039;SHT30;58692;43.212;27.908;2023-08-31T05:47:38;27.09;74.53
71039;SHT30;58692;43.212;27.908;2023-08-31T05:50:04;27.34;73.90
71039;SHT30;58692;43.212;27.908;2023-08-31T05:52:29;27.87;72.35
71039;SHT30;58692;43.212;27.908;2023-08-31T05:54:55;28.12;71.87
71039;SHT30;58692;43.212;27.908;2023-08-31T05:57:21;28.15;71.67
71039;SHT30;58692;43.212;27.908;2023-08-31T05:59:48;28.48;70.53
71039;SHT30;58692;43.212;27.908;2023-08-31T06:02:13;28.56;70.01
71039;SHT30;58692;43.212;27.908;2023-08-31T06:04:39;28.38;69.84
71039;SHT30;58692;43.212;27.908;2023-08-31T06:07:04;28.49;69.67
71039;SHT30;58692;43.212;27.908;2023-08-31T06:09:30;28.89;68.67
71039;SHT30;58692;43.212;27.908;2023-08-31T06:11:55;28.95;68.70
71039;SHT30;58692;43.212;27.908;2023-08-31T06:14:21;28.76;69.38
71039;SHT30;58692;43.212;27.908;2023-08-31T06:16:46;28.92;69.06
71039;SHT30;58692;43.212;27.908;2023-08-31T06:19:12;29.07;68.56
71039;SHT30;58692;43.212;27.908;2023-08-31T06:21:41;29.03;68.99
71039;SHT30;58692;43.212;27.908;2023-08-31T06:24:07;29.26;68.62
71039;SHT30;58692;43.212;27.908;2023-08-31T06:26:35;29.61;67.81
71039;SHT30;58692;43.212;27.908;2023-08-31T06:29:01;29.75;67.44
71039;SHT30;58692;43.212;27.908;2023-08-31T06:31:29;29.91;66.99
71039;SHT30;58692;43.212;27.908;2023-08-31T06:33:54;29.49;68.17
71039;SHT30;58692;43.212;27.908;2023-08-31T06:36:20;30.12;66.44
71039;SHT30;58692;43.212;27.908;2023-08-31T06:38:45;30.47;65.61
71039;SHT30;58692;43.212;27.908;2023-08-31T06:41:11;30.77;64.87
71039;SHT30;58692;43.212;27.908;2023-08-31T06:43:36;30.82;64.82
71039;SHT30;58692;43.212;27.908;2023-08-31T06:46:02;30.66;65.24
71039;SHT30;58692;43.212;27.908;2023-08-31T06:48:27;30.82;65.03
71039;SHT30;58692;43.212;27.908;2023-08-31T06:50:54;31.24;63.98
71039;SHT30;58692;43.212;27.908;2023-08-31T06:53:19;31.77;62.77
71039;SHT30;58692;43.212;27.908;2023-08-31T06:55:44;31.54;62.88
71039;SHT30;58692;43.212;27.908;2023-08-31T06:58:10;31.65;62.80
71039;SHT30;58692;43.212;27.908;2023-08-31T07:00:35;32.06;62.12
71039;SHT30;58692;43.212;27.908;2023-08-31T07:03:01;31.88;61.91
71039;SHT30;58692;43.212;27.908;2023-08-31T07:05:26;32.46;60.82
71039;SHT30;58692;43.212;27.908;2023-08-31T07:07:53;32.64;60.42
71039;SHT30;58692;43.212;27.908;2023-08-31T07:10:20;32.32;61.10
71039;SHT30;58692;43.212;27.908;2023-08-31T07:12:45;32.41;60.72
71039;SHT30;58692;43.212;27.908;2023-08-31T07:15:11;32.29;61.42
71039;SHT30;58692;43.212;27.908;2023-08-31T07:17:36;32.13;61.40
71039;SHT30;58692;43.212;27.908;2023-08-31T07:20:02;32.28;61.11
71039;SHT30;58692;43.212;27.908;2023-08-31T07:22:32;32.71;59.98
71039;SHT30;58692;43.212;27.908;2023-08-31T07:24:58;32.09;61.23
71039;SHT30;58692;43.212;27.908;2023-08-31T07:27:23;32.16;61.09
71039;SHT30;58692;43.212;27.908;2023-08-31T07:29:49;31.78;61.28
71039;SHT30;58692;43.212;27.908;2023-08-31T07:32:14;32.26;60.17
71039;SHT30;58692;43.212;27.908;2023-08-31T07:34:40;32.02;60.13
71039;SHT30;58692;43.212;27.908;2023-08-31T07:37:05;32.33;60.18
71039;SHT30;58692;43.212;27.908;2023-08-31T07:39:31;32.74;58.86
71039;SHT30;58692;43.212;27.908;2023-08-31T07:41:57;33.37;57.38
71039;SHT30;58692;43.212;27.908;2023-08-31T07:44:24;33.78;56.19
71039;SHT30;58692;43.212;27.908;2023-08-31T07:46:50;32.92;57.41
71039;SHT30;58692;43.212;27.908;2023-08-31T07:49:15;33.59;56.54
71039;SHT30;58692;43.212;27.908;2023-08-31T07:51:41;33.98;55.70
71039;SHT30;58692;43.212;27.908;2023-08-31T07:54:06;34.37;54.74
71039;SHT30;58692;43.212;27.908;2023-08-31T07:56:32;33.45;55.84
71039;SHT30;58692;43.212;27.908;2023-08-31T07:58:58;33.32;56.24
71039;SHT30;58692;43.212;27.908;2023-08-31T08:01:23;33.28;56.04
71039;SHT30;58692;43.212;27.908;2023-08-31T08:03:49;33.58;55.41
71039;SHT30;58692;43.212;27.908;2023-08-31T08:06:14;33.66;55.00
71039;SHT30;58692;43.212;27.908;2023-08-31T08:08:40;32.91;55.45
71039;SHT30;58692;43.212;27.908;2023-08-31T08:11:06;33.34;55.18
71039;SHT30;58692;43.212;27.908;2023-08-31T08:13:31;33.55;54.94
71039;SHT30;58692;43.212;27.908;2023-08-31T08:15:57;33.85;54.10
71039;SHT30;58692;43.212;27.908;2023-08-31T08:18:22;34.66;52.50
71039;SHT30;58692;43.212;27.908;2023-08-31T08:20:51;35.03;51.78
71039;SHT30;58692;43.212;27.908;2023-08-31T08:23:16;35.59;50.64
71039;SHT30;58692;43.212;27.908;2023-08-31T08:25:42;35.59;49.90
71039;SHT30;58692;43.212;27.908;2023-08-31T08:28:08;35.08;50.67
71039;SHT30;58692;43.212;27.908;2023-08-31T08:30:33;34.87;50.50
71039;SHT30;58692;43.212;27.908;2023-08-31T08:32:59;34.60;50.77
71039;SHT30;58692;43.212;27.908;2023-08-31T08:35:24;35.04;50.34
71039;SHT30;58692;43.212;27.908;2023-08-31T08:37:51;36.03;48.09
71039;SHT30;58692;43.212;27.908;2023-08-31T08:40:17;36.28;47.71
71039;SHT30;58692;43.212;27.908;2023-08-31T08:42:43;36.51;47.07
71039;SHT30;58692;43.212;27.908;2023-08-31T08:45:14;36.22;46.91
71039;SHT30;58692;43.212;27.908;2023-08-31T08:47:43;36.30;47.31
71039;SHT30;58692;43.212;27.908;2023-08-31T08:50:11;37.02;45.91
71039;SHT30;58692;43.212;27.908;2023-08-31T08:52:37;37.27;45.20
71039;SHT30;58692;43.212;27.908;2023-08-31T08:55:09;37.73;43.67
71039;SHT30;58692;43.212;27.908;2023-08-31T08:57:35;37.60;44.07
71039;SHT30;58692;43.212;27.908;2023-08-31T09:00:01;37.45;44.45
71039;SHT30;58692;43.212;27.908;2023-08-31T09:02:27;37.55;43.91
71039;SHT30;58692;43.212;27.908;2023-08-31T09:04:52;37.01;43.86
71039;SHT30;58692;43.212;27.908;2023-08-31T09:07:21;36.49;43.76
71039;SHT30;58692;43.212;27.908;2023-08-31T09:09:50;37.06;43.33
71039;SHT30;58692;43.212;27.908;2023-08-31T09:12:15;38.03;41.01
71039;SHT30;58692;43.212;27.908;2023-08-31T09:14:41;38.17;40.56
71039;SHT30;58692;43.212;27.908;2023-08-31T09:17:06;38.49;39.87
71039;SHT30;58692;43.212;27.908;2023-08-31T09:19:32;38.77;39.49
71039;SHT30;58692;43.212;27.908;2023-08-31T09:21:58;38.87;38.88
71039;SHT30;58692;43.212;27.908;2023-08-31T09:24:23;37.35;40.50
71039;SHT30;58692;43.212;27.908;2023-08-31T09:26:54;37.99;39.94
71039;SHT30;58692;43.212;27.908;2023-08-31T09:29:20;39.05;38.20
71039;SHT30;58692;43.212;27.908;2023-08-31T09:31:46;39.15;37.82
71039;SHT30;58692;43.212;27.908;2023-08-31T09:34:13;39.19;37.09
71039;SHT30;58692;43.212;27.908;2023-08-31T09:36:39;39.17;35.90
71039;SHT30;58692;43.212;27.908;2023-08-31T09:39:05;38.77;36.53
71039;SHT30;58692;43.212;27.908;2023-08-31T09:41:31;39.65;35.55
71039;SHT30;58692;43.212;27.908;2023-08-31T09:44:14;40.00;36.40
71039;SHT30;58692;43.212;27.908;2023-08-31T09:46:40;39.56;36.06
71039;SHT30;58692;43.212;27.908;2023-08-31T09:49:06;38.85;37.09
71039;SHT30;58692;43.212;27.908;2023-08-31T09:51:33;39.42;35.19
71039;SHT30;58692;43.212;27.908;2023-08-31T09:54:03;39.79;35.73
71039;SHT30;58692;43.212;27.908;2023-08-31T09:56:33;39.17;36.28
71039;SHT30;58692;43.212;27.908;2023-08-31T09:58:58;39.73;36.05
71039;SHT30;58692;43.212;27.908;2023-08-31T10:01:24;39.55;35.76
71039;SHT30;58692;43.212;27.908;2023-08-31T10:03:51;39.39;35.23
71039;SHT30;58692;43.212;27.908;2023-08-31T10:06:17;39.49;35.89
71039;SHT30;58692;43.212;27.908;2023-08-31T10:08:44;39.51;35.22
71039;SHT30;58692;43.212;27.908;2023-08-31T10:11:10;40.17;34.92
71039;SHT30;58692;43.212;27.908;2023-08-31T10:13:40;39.92;34.72
71039;SHT30;58692;43.212;27.908;2023-08-31T10:16:06;40.03;34.25
71039;SHT30;58692;43.212;27.908;2023-08-31T10:18:34;39.34;35.54
71039;SHT30;58692;43.212;27.908;2023-08-31T10:21:01;40.29;33.04
71039;SHT30;58692;43.212;27.908;2023-08-31T10:23:28;40.40;30.14
71039;SHT30;58692;43.212;27.908;2023-08-31T10:28:22;39.49;32.48
71039;SHT30;58692;43.212;27.908;2023-08-31T10:31:06;38.41;38.97
71039;SHT30;58692;43.212;27.908;2023-08-31T10:33:40;38.08;37.37
71039;SHT30;58692;43.212;27.908;2023-08-31T10:36:15;38.52;34.89
71039;SHT30;58692;43.212;27.908;2023-08-31T10:38:45;38.62;34.85
71039;SHT30;58692;43.212;27.908;2023-08-31T10:46:43;36.36;53.04
71039;SHT30;58692;43.212;27.908;2023-08-31T10:51:36;33.81;58.96
71039;SHT30;58692;43.212;27.908;2023-08-31T10:54:11;34.73;57.03
71039;SHT30;58692;43.212;27.908;2023-08-31T10:57:01;34.19;58.65
71039;SHT30;58692;43.212;27.908;2023-08-31T11:04:56;32.60;62.40
71039;SHT30;58692;43.212;27.908;2023-08-31T11:07:27;32.60;62.96
71039;SHT30;58692;43.212;27.908;2023-08-31T11:10:10;32.91;61.72
71039;SHT30;58692;43.212;27.908;2023-08-31T11:12:36;32.52;62.56
71039;SHT30;58692;43.212;27.908;2023-08-31T11:15:02;33.68;60.95
71039;SHT30;58692;43.212;27.908;2023-08-31T11:17:29;34.37;58.89
71039;SHT30;58692;43.212;27.908;2023-08-31T11:19:57;34.83;58.02
71039;SHT30;58692;43.212;27.908;2023-08-31T11:22:23;34.76;58.12
71039;SHT30;58692;43.212;27.908;2023-08-31T11:24:49;34.90;56.52
71039;SHT30;58692;43.212;27.908;2023-08-31T11:27:19;34.79;56.79
71039;SHT30;58692;43.212;27.908;2023-08-31T11:29:44;35.25;55.51
71039;SHT30;58692;43.212;27.908;2023-08-31T11:32:10;34.59;53.51
71039;SHT30;58692;43.212;27.908;2023-08-31T11:34:40;33.59;56.01
71039;SHT30;58692;43.212;27.908;2023-08-31T11:37:07;33.11;60.33
71039;SHT30;58692;43.212;27.908;2023-08-31T11:39:33;32.92;60.61
71039;SHT30;58692;43.212;27.908;2023-08-31T11:41:58;32.52;62.34
71039;SHT30;58692;43.212;27.908;2023-08-31T11:44:24;31.99;64.58
71039;SHT30;58692;43.212;27.908;2023-08-31T11:46:50;32.84;62.89
71039;SHT30;58692;43.212;27.908;2023-08-31T11:49:17;33.10;63.36
71039;SHT30;58692;43.212;27.908;2023-08-31T11:51:44;32.76;63.02
71039;SHT30;58692;43.212;27.908;2023-08-31T11:54:10;32.29;64.28
71039;SHT30;58692;43.212;27.908;2023-08-31T11:56:44;32.70;62.51
71039;SHT30;58692;43.212;27.908;2023-08-31T11:59:15;32.70;62.53
71039;SHT30;58692;43.212;27.908;2023-08-31T12:01:42;32.18;63.70
71039;SHT30;58692;43.212;27.908;2023-08-31T12:04:12;32.64;60.96
71039;SHT30;58692;43.212;27.908;2023-08-31T12:06:38;32.91;60.76
71039;SHT30;58692;43.212;27.908;2023-08-31T12:09:06;32.30;61.67
71039;SHT30;58692;43.212;27.908;2023-08-31T12:11:31;31.90;62.96
71039;SHT30;58692;43.212;27.908;2023-08-31T12:14:19;31.84;65.99
71039;SHT30;58692;43.212;27.908;2023-08-31T12:16:45;31.85;64.95
71039;SHT30;58692;43.212;27.908;2023-08-31T12:19:10;31.85;62.53
71039;SHT30;58692;43.212;27.908;2023-08-31T12:21:36;31.90;64.38
71039;SHT30;58692;43.212;27.908;2023-08-31T12:24:01;32.01;64.45
71039;SHT30;58692;43.212;27.908;2023-08-31T12:26:28;31.58;65.27
71039;SHT30;58692;43.212;27.908;2023-08-31T12:28:54;31.48;66.18
71039;SHT30;58692;43.212;27.908;2023-08-31T12:31:21;31.61;64.29
71039;SHT30;58692;43.212;27.908;2023-08-31T12:33:47;31.37;65.37
71039;SHT30;58692;43.212;27.908;2023-08-31T12:36:13;30.94;67.17
71039;SHT30;58692;43.212;27.908;2023-08-31T12:38:38;30.55;68.44
71039;SHT30;58692;43.212;27.908;2023-08-31T12:41:04;30.69;68.91
71039;SHT30;58692;43.212;27.908;2023-08-31T12:43:30;30.73;69.22
71039;SHT30;58692;43.212;27.908;2023-08-31T12:45:56;30.60;70.16
71039;SHT30;58692;43.212;27.908;2023-08-31T12:48:22;30.43;69.72
71039;SHT30;58692;43.212;27.908;2023-08-31T12:50:47;30.12;70.91
71039;SHT30;58692;43.212;27.908;2023-08-31T12:53:15;29.72;72.89
71039;SHT30;58692;43.212;27.908;2023-08-31T12:55:41;29.77;73.10
71039;SHT30;58692;43.212;27.908;2023-08-31T12:58:06;29.88;73.01
71039;SHT30;58692;43.212;27.908;2023-08-31T13:00:34;29.75;73.13
71039;SHT30;58692;43.212;27.908;2023-08-31T13:03:00;29.64;74.27
71039;SHT30;58692;43.212;27.908;2023-08-31T13:05:26;29.86;73.70
71039;SHT30;58692;43.212;27.908;2023-08-31T13:07:54;29.68;73.97
71039;SHT30;58692;43.212;27.908;2023-08-31T13:10:20;29.44;74.96
71039;SHT30;58692;43.212;27.908;2023-08-31T13:12:45;29.35;75.36
71039;SHT30;58692;43.212;27.908;2023-08-31T13:15:11;29.53;74.68
71039;SHT30;58692;43.212;27.908;2023-08-31T13:17:37;29.51;74.31
71039;SHT30;58692;43.212;27.908;2023-08-31T13:20:02;29.43;74.58
71039;SHT30;58692;43.212;27.908;2023-08-31T13:22:30;29.55;74.34
71039;SHT30;58692;43.212;27.908;2023-08-31T13:24:56;29.44;74.29
71039;SHT30;58692;43.212;27.908;2023-08-31T13:27:21;29.41;74.44
71039;SHT30;58692;43.212;27.908;2023-08-31T13:29:47;29.31;74.57
71039;SHT30;58692;43.212;27.908;2023-08-31T13:32:13;29.50;74.44
71039;SHT30;58692;43.212;27.908;2023-08-31T13:34:38;29.75;73.32
71039;SHT30;58692;43.212;27.908;2023-08-31T13:37:04;29.46;74.32
71039;SHT30;58692;43.212;27.908;2023-08-31T13:39:31;29.27;75.01
71039;SHT30;58692;43.212;27.908;2023-08-31T13:41:57;29.30;75.25
71039;SHT30;58692;43.212;27.908;2023-08-31T13:44:22;29.29;75.19
71039;SHT30;58692;43.212;27.908;2023-08-31T13:46:48;29.37;74.52
71039;SHT30;58692;43.212;27.908;2023-08-31T13:49:15;29.40;74.65
71039;SHT30;58692;43.212;27.908;2023-08-31T13:51:41;29.50;74.13
71039;SHT30;58692;43.212;27.908;2023-08-31T13:54:07;29.54;74.26
71039;SHT30;58692;43.212;27.908;2023-08-31T13:56:34;29.58;74.25
71039;SHT30;58692;43.212;27.908;2023-08-31T13:58:59;29.40;74.81
71039;SHT30;58692;43.212;27.908;2023-08-31T14:01:26;29.55;74.40
71039;SHT30;58692;43.212;27.908;2023-08-31T14:03:52;29.50;74.71
71039;SHT30;58692;43.212;27.908;2023-08-31T14:06:18;29.68;74.44
71039;SHT30;58692;43.212;27.908;2023-08-31T14:08:43;29.88;73.80
71039;SHT30;58692;43.212;27.908;2023-08-31T14:11:09;30.00;73.60
71039;SHT30;58692;43.212;27.908;2023-08-31T14:13:34;30.04;73.45
71039;SHT30;58692;43.212;27.908;2023-08-31T14:16:01;30.09;73.27
71039;SHT30;58692;43.212;27.908;2023-08-31T14:18:28;29.97;73.53
71039;SHT30;58692;43.212;27.908;2023-08-31T14:20:56;29.49;75.24
71039;SHT30;58692;43.212;27.908;2023-08-31T14:23:23;29.29;75.89
71039;SHT30;58692;43.212;27.908;2023-08-31T14:25:48;29.19;76.18
71039;SHT30;58692;43.212;27.908;2023-08-31T14:28:14;29.02;76.46
71039;SHT30;58692;43.212;27.908;2023-08-31T14:30:39;28.92;76.85
71039;SHT30;58692;43.212;27.908;2023-08-31T14:33:05;28.97;76.85
71039;SHT30;58692;43.212;27.908;2023-08-31T14:35:30;29.04;76.57
71039;SHT30;58692;43.212;27.908;2023-08-31T14:37:57;28.89;76.90
71039;SHT30;58692;43.212;27.908;2023-08-31T14:40:23;28.92;76.90
71039;SHT30;58692;43.212;27.908;2023-08-31T14:42:49;28.79;77.29
71039;SHT30;58692;43.212;27.908;2023-08-31T14:45:15;28.69;77.48
71039;SHT30;58692;43.212;27.908;2023-08-31T14:47:40;28.76;77.34
71039;SHT30;58692;43.212;27.908;2023-08-31T14:50:07;28.72;77.19
71039;SHT30;58692;43.212;27.908;2023-08-31T14:52:33;28.46;77.93
71039;SHT30;58692;43.212;27.908;2023-08-31T14:54:59;28.46;77.93
71039;SHT30;58692;43.212;27.908;2023-08-31T14:57:25;28.49;78.02
71039;SHT30;58692;43.212;27.908;2023-08-31T14:59:51;28.41;77.97
71039;SHT30;58692;43.212;27.908;2023-08-31T15:02:19;28.28;78.04
71039;SHT30;58692;43.212;27.908;2023-08-31T15:04:48;28.28;78.26
71039;SHT30;58692;43.212;27.908;2023-08-31T15:07:16;28.26;78.24
71039;SHT30;58692;43.212;27.908;2023-08-31T15:09:42;28.19;78.51
71039;SHT30;58692;43.212;27.908;2023-08-31T15:12:07;28.18;78.43
71039;SHT30;58692;43.212;27.908;2023-08-31T15:14:33;28.09;78.81
71039;SHT30;58692;43.212;27.908;2023-08-31T15:16:59;28.00;79.42
71039;SHT30;58692;43.212;27.908;2023-08-31T15:19:25;28.09;79.32
71039;SHT30;58692;43.212;27.908;2023-08-31T15:21:50;28.18;78.98
71039;SHT30;58692;43.212;27.908;2023-08-31T15:24:16;28.18;79.17
71039;SHT30;58692;43.212;27.908;2023-08-31T15:26:41;28.11;79.12
71039;SHT30;58692;43.212;27.908;2023-08-31T15:29:11;28.24;78.93
71039;SHT30;58692;43.212;27.908;2023-08-31T15:31:37;28.34;78.76